Time;durP1;ratioP1;P1;durP2;ratioP2;P2;SDS_P1;SDS_P2;PMS_P1;PMS_P2;Temp;Humidity;BMP_temperature;BMP_pressure;BME280_temperature;BME280_humidity;BME280_pressure;Samples;Min_cycle;Max_cycle;Signal;HPM_P1;HPM_P2
2021/06/15 00:01:51;;;;;;;;;6.25;6.25;;;;;29.93;34.73;101525.31;5016844;28;45580;-47
2021/06/15 00:04:17;;;;;;;;;5.00;5.00;;;;;29.92;34.69;101529.13;5018938;28;45246;-50
2021/06/15 00:06:42;;;;;;;;;6.50;5.00;;;;;29.90;34.68;101526.59;5001699;28;45273;-48
2021/06/15 00:09:08;;;;;;;;;6.00;4.50;;;;;29.88;34.89;101517.66;4998622;28;45942;-46
2021/06/15 00:11:34;;;;;;;;;5.00;5.00;;;;;29.88;34.96;101517.66;4998584;28;45238;-45
2021/06/15 00:13:59;;;;;;;;;8.75;7.25;;;;;29.85;35.07;101518.91;5014689;28;45290;-46
2021/06/15 00:16:25;;;;;;;;;7.25;7.25;;;;;29.84;35.11;101517.19;5018505;28;45394;-47
2021/06/15 00:18:50;;;;;;;;;7.00;5.00;;;;;29.82;35.20;101505.50;5018454;28;45326;-46
2021/06/15 00:21:16;;;;;;;;;6.25;6.00;;;;;29.81;35.13;101494.63;5018516;28;45226;-46
2021/06/15 00:23:41;;;;;;;;;6.75;5.75;;;;;29.79;35.54;101499.50;5018545;28;45211;-44
2021/06/15 00:26:07;;;;;;;;;6.75;5.00;;;;;29.76;35.12;101502.72;5017099;28;45455;-45
2021/06/15 00:28:32;;;;;;;;;8.00;7.00;;;;;29.77;35.32;101508.03;5050244;28;46524;-44
2021/06/15 00:30:58;;;;;;;;;5.75;5.75;;;;;29.75;35.34;101499.06;5018124;28;45314;-44
2021/06/15 00:33:24;;;;;;;;;6.00;6.00;;;;;29.74;35.40;101508.44;5018538;28;45336;-46
2021/06/15 00:35:50;;;;;;;;;4.00;4.00;;;;;29.72;35.20;101505.91;5018324;28;45357;-43
2021/06/15 00:38:16;;;;;;;;;5.25;5.25;;;;;29.71;35.46;101497.78;5018157;28;45339;-44
2021/06/15 00:40:42;;;;;;;;;5.50;5.50;;;;;29.69;35.52;101505.44;5018288;28;45369;-44
2021/06/15 00:43:07;;;;;;;;;6.50;6.00;;;;;29.68;35.41;101510.13;5016926;28;45354;-45
2021/06/15 00:45:33;;;;;;;;;6.25;5.50;;;;;29.68;35.64;101506.53;5017462;28;45454;-47
2021/06/15 00:47:59;;;;;;;;;7.00;6.00;;;;;29.67;35.38;101511.19;5017968;28;45265;-49
2021/06/15 00:50:27;;;;;;;;;6.00;5.75;;;;;29.64;35.67;101508.84;5017984;28;45355;-44
2021/06/15 00:52:53;;;;;;;;;8.50;7.00;;;;;29.56;35.23;101496.03;5012852;28;45551;-46
2021/06/15 00:55:21;;;;;;;;;7.00;7.00;;;;;29.63;35.59;101520.13;4996894;28;45595;-45
2021/06/15 00:57:46;;;;;;;;;6.75;5.00;;;;;29.60;35.70;101506.69;4998010;28;46170;-44
2021/06/15 01:00:12;;;;;;;;;5.50;5.50;;;;;29.60;35.78;101521.41;5008017;28;45433;-46
2021/06/15 01:02:38;;;;;;;;;5.75;5.50;;;;;29.58;35.81;101515.22;5017703;28;45228;-47
2021/06/15 01:05:07;;;;;;;;;5.50;5.50;;;;;29.56;35.85;101509.88;5014409;28;45514;-44
2021/06/15 01:07:53;;;;;;;;;5.25;5.25;;;;;29.55;35.86;101513.72;4997805;28;45317;-48
2021/06/15 01:10:30;;;;;;;;;5.50;5.00;;;;;29.54;35.88;101517.56;5010362;28;45354;-45
2021/06/15 01:13:27;;;;;;;;;6.75;6.75;;;;;29.53;35.82;101523.28;5015701;28;45332;-44
2021/06/15 01:15:58;;;;;;;;;5.75;5.75;;;;;29.50;35.97;101521.78;5029575;28;45467;-43
2021/06/15 01:18:27;;;;;;;;;5.50;4.50;;;;;29.49;36.11;101525.63;4997663;28;45967;-43
2021/06/15 01:21:01;;;;;;;;;7.25;6.25;;;;;29.47;36.05;101521.38;5012302;28;45339;-44
2021/06/15 01:23:32;;;;;;;;;8.00;5.25;;;;;29.45;36.05;101521.56;5017767;28;45262;-44
2021/06/15 01:26:03;;;;;;;;;5.00;5.00;;;;;29.44;36.28;101524.53;5016360;28;45454;-43
2021/06/15 01:28:36;;;;;;;;;7.50;6.50;;;;;29.41;36.21;101518.34;5017167;28;45849;-44
2021/06/15 01:31:08;;;;;;;;;5.50;4.25;;;;;29.41;36.21;101520.25;5017288;28;45617;-43
2021/06/15 01:33:39;;;;;;;;;7.00;7.00;;;;;29.38;36.35;101515.16;5016314;28;45435;-44
2021/06/15 01:36:09;;;;;;;;;7.00;4.50;;;;;29.37;36.29;101514.28;5017498;28;45487;-44
2021/06/15 01:38:41;;;;;;;;;6.50;6.50;;;;;29.36;36.38;101508.97;5015959;28;46191;-44
2021/06/15 01:41:13;;;;;;;;;6.00;6.00;;;;;29.35;36.31;101510.03;5017128;28;45709;-44
2021/06/15 01:43:49;;;;;;;;;5.25;5.25;;;;;29.33;36.25;101512.13;5017199;28;45232;-44
2021/06/15 01:46:19;;;;;;;;;4.75;4.75;;;;;29.30;36.41;101504.22;5012011;28;45473;-43
2021/06/15 01:49:01;;;;;;;;;5.00;5.00;;;;;29.28;36.18;101498.91;5010071;28;45986;-43
2021/06/15 01:51:27;;;;;;;;;4.75;4.75;;;;;29.26;36.27;101507.38;5016670;28;45230;-43
2021/06/15 01:53:57;;;;;;;;;4.25;4.25;;;;;29.25;36.31;101507.59;5015845;28;45448;-44
2021/06/15 01:56:25;;;;;;;;;7.00;6.00;;;;;29.23;36.37;101499.53;5017124;28;45345;-43
2021/06/15 01:58:54;;;;;;;;;7.00;6.00;;;;;29.23;36.44;101501.44;5016871;28;45277;-44
2021/06/15 02:01:21;;;;;;;;;5.75;5.25;;;;;29.20;36.61;101508.22;5016795;28;45564;-44
2021/06/15 02:03:48;;;;;;;;;5.00;5.00;;;;;29.19;36.54;101503.75;5015704;28;45389;-43
2021/06/15 02:06:19;;;;;;;;;5.25;5.25;;;;;29.17;36.49;101507.81;5016812;28;45222;-43
2021/06/15 02:08:48;;;;;;;;;6.50;5.25;;;;;29.17;36.54;101505.88;5016729;28;45768;-43
2021/06/15 02:11:14;;;;;;;;;5.50;5.50;;;;;29.14;36.81;101509.03;5016493;28;45456;-44
2021/06/15 02:13:44;;;;;;;;;6.00;6.00;;;;;29.14;36.66;101510.97;5012137;28;45453;-43
2021/06/15 02:16:10;;;;;;;;;8.00;8.00;;;;;29.12;36.71;101513.91;5011831;28;45452;-43
2021/06/15 02:18:36;;;;;;;;;5.00;5.00;;;;;29.10;36.74;101511.38;5015120;28;46385;-44
2021/06/15 02:21:08;;;;;;;;;6.75;6.75;;;;;29.09;36.75;101509.66;5016341;28;45392;-43
2021/06/15 02:23:36;;;;;;;;;6.00;6.00;;;;;29.08;36.38;101512.66;5016887;28;45409;-44
2021/06/15 02:26:08;;;;;;;;;6.00;6.00;;;;;29.08;36.75;101520.94;5015424;28;45382;-44
2021/06/15 02:28:36;;;;;;;;;6.75;5.50;;;;;29.06;36.89;101512.84;5016234;28;45903;-44
2021/06/15 02:31:02;;;;;;;;;7.00;5.00;;;;;29.04;37.08;101506.69;5016450;28;45633;-43
2021/06/15 02:33:33;;;;;;;;;8.00;6.75;;;;;29.02;36.71;101505.16;5016826;28;45385;-44
2021/06/15 02:36:04;;;;;;;;;7.75;7.75;;;;;29.02;37.03;101508.78;5016586;28;45425;-43
2021/06/15 02:38:32;;;;;;;;;7.50;6.25;;;;;29.01;36.86;101504.31;5014924;28;45458;-46
2021/06/15 02:41:03;;;;;;;;;6.00;6.00;;;;;28.99;37.03;101506.44;5014573;28;45568;-44
2021/06/15 02:43:31;;;;;;;;;8.75;6.25;;;;;28.99;36.72;101506.44;5016530;28;45319;-43
2021/06/15 02:45:59;;;;;;;;;6.75;6.75;;;;;28.98;36.72;101507.47;5016428;28;45314;-44
2021/06/15 02:48:31;;;;;;;;;7.75;6.50;;;;;28.97;37.08;101508.53;5016149;28;45892;-44
2021/06/15 02:50:58;;;;;;;;;8.75;8.00;;;;;28.96;36.88;101515.13;5014570;28;45376;-44
2021/06/15 02:53:35;;;;;;;;;7.00;7.00;;;;;28.95;37.16;101516.19;5016332;28;45402;-43
2021/06/15 02:56:05;;;;;;;;;6.00;6.00;;;;;28.93;36.85;101513.63;5016193;28;45374;-43
2021/06/15 02:58:32;;;;;;;;;8.75;8.00;;;;;28.93;36.68;101513.63;5015577;28;46106;-43
2021/06/15 03:00:57;;;;;;;;;7.50;7.50;;;;;28.91;36.81;101512.09;5016070;28;45368;-43
2021/06/15 03:03:23;;;;;;;;;8.75;8.75;;;;;28.90;36.92;101516.78;5016214;28;45414;-44
2021/06/15 03:05:48;;;;;;;;;7.00;6.50;;;;;28.89;36.93;101514.25;5015823;28;45451;-43
2021/06/15 03:08:14;;;;;;;;;7.75;6.75;;;;;28.87;36.78;101519.13;5015964;28;45518;-43
2021/06/15 03:10:40;;;;;;;;;6.00;6.00;;;;;28.87;36.96;101510.81;4998161;28;45279;-43
2021/06/15 03:13:41;;;;;;;;;7.75;7.00;;;;;28.86;37.19;101509.13;4996377;28;45389;-44
2021/06/15 03:16:17;;;;;;;;;6.25;6.25;;;;;28.84;36.60;101516.75;5015230;28;45607;-45
2021/06/15 03:19:28;;;;;;;;;8.50;7.25;;;;;28.83;36.74;101515.03;5015789;28;45916;-48
2021/06/15 03:22:04;;;;;;;;;5.00;5.00;;;;;28.80;36.64;101517.16;5011451;28;45230;-49
2021/06/15 03:24:32;;;;;;;;;7.00;7.00;;;;;28.77;36.79;101506.50;5015871;28;45318;-47
2021/06/15 03:27:06;;;;;;;;;6.75;6.75;;;;;28.78;36.83;101512.88;5016001;28;45340;-48
2021/06/15 03:29:37;;;;;;;;;6.25;5.50;;;;;28.75;36.96;101505.88;5015835;28;45497;-46
2021/06/15 03:32:08;;;;;;;;;7.00;7.00;;;;;28.76;37.28;101504.78;5015190;28;45394;-49
2021/06/15 03:34:39;;;;;;;;;5.50;4.25;;;;;28.74;36.86;101508.81;5015617;28;45555;-48
2021/06/15 03:37:05;;;;;;;;;6.25;6.25;;;;;28.75;36.84;101507.75;5000814;28;45323;-45
2021/06/15 03:39:32;;;;;;;;;7.00;7.00;;;;;28.72;37.26;101514.53;5018949;28;46214;-48
2021/06/15 03:42:01;;;;;;;;;5.75;5.75;;;;;28.72;37.07;101516.41;5017445;28;45839;-44
2021/06/15 03:44:27;;;;;;;;;4.75;4.50;;;;;28.70;37.25;101519.41;5019012;28;45396;-50
2021/06/15 03:46:56;;;;;;;;;8.50;6.25;;;;;28.70;37.17;101527.69;5019250;28;45394;-44
2021/06/15 03:49:23;;;;;;;;;6.00;5.00;;;;;28.69;36.96;101523.22;5018982;28;46145;-46
2021/06/15 03:52:00;;;;;;;;;5.50;5.00;;;;;28.66;37.02;101521.72;5017605;28;45706;-45
2021/06/15 03:54:27;;;;;;;;;5.50;5.50;;;;;28.67;37.14;101522.56;5018978;28;45427;-44
2021/06/15 03:56:55;;;;;;;;;6.75;6.75;;;;;28.65;37.01;101522.78;5000136;28;45487;-48
2021/06/15 03:59:31;;;;;;;;;5.25;4.25;;;;;28.65;37.20;101522.78;5002262;28;46043;-50
2021/06/15 04:02:03;;;;;;;;;6.25;6.25;;;;;28.63;37.08;101519.34;5018398;28;45618;-44
2021/06/15 04:04:32;;;;;;;;;7.25;7.25;;;;;28.62;37.14;101520.41;5018941;28;45233;-46
2021/06/15 04:06:59;;;;;;;;;6.00;6.00;;;;;28.61;37.26;101517.84;5018597;28;45349;-48
2021/06/15 04:09:27;;;;;;;;;5.00;5.00;;;;;28.61;37.37;101526.97;5011428;28;45396;-45
2021/06/15 04:11:56;;;;;;;;;6.50;6.50;;;;;28.61;37.35;101523.38;4997312;28;45301;-47
2021/06/15 04:14:23;;;;;;;;;6.50;5.50;;;;;28.58;37.16;101513.56;5004213;28;45416;-47
2021/06/15 04:16:50;;;;;;;;;6.50;6.50;;;;;28.59;37.25;101520.78;5018795;28;45480;-43
2021/06/15 04:19:20;;;;;;;;;7.50;7.50;;;;;28.59;37.39;101511.66;5018451;28;45519;-49
2021/06/15 04:21:48;;;;;;;;;7.75;4.50;;;;;28.57;37.28;101514.63;5018316;28;45509;-47
2021/06/15 04:24:18;;;;;;;;;7.50;7.50;;;;;28.57;36.90;101517.38;5017146;28;45450;-48
2021/06/15 04:26:44;;;;;;;;;9.25;8.00;;;;;28.55;37.39;101525.00;5018589;28;45229;-44
2021/06/15 04:29:11;;;;;;;;;8.25;8.00;;;;;28.55;37.42;101522.25;5018053;28;45310;-43
2021/06/15 04:31:39;;;;;;;;;9.25;9.00;;;;;28.53;37.34;101516.09;5018215;28;45249;-46
2021/06/15 04:34:07;;;;;;;;;11.00;9.00;;;;;28.55;37.20;101524.16;5017112;28;45377;-43
2021/06/15 04:36:34;;;;;;;;;9.75;8.50;;;;;28.54;37.22;101525.22;5017967;28;45342;-45
2021/06/15 04:39:14;;;;;;;;;9.00;9.00;;;;;28.53;37.28;101532.66;5016771;28;47995;-44
2021/06/15 04:41:43;;;;;;;;;9.75;9.75;;;;;28.53;37.45;101531.81;5018203;28;45356;-43
2021/06/15 04:44:20;;;;;;;;;10.50;9.00;;;;;28.50;37.26;101542.19;5017918;28;45410;-46
2021/06/15 04:46:57;;;;;;;;;9.00;9.00;;;;;28.50;37.15;101538.59;5017909;28;45274;-47
2021/06/15 04:49:36;;;;;;;;;10.25;8.00;;;;;28.49;37.42;101547.94;5017038;28;45893;-44
2021/06/15 04:52:04;;;;;;;;;9.50;8.50;;;;;28.48;37.51;101551.75;5017708;28;45498;-45
2021/06/15 04:54:36;;;;;;;;;10.00;9.00;;;;;28.49;37.31;101545.16;5018128;28;45361;-48
2021/06/15 04:57:11;;;;;;;;;10.50;8.75;;;;;28.46;37.35;101554.72;5018017;28;45375;-43
2021/06/15 04:59:38;;;;;;;;;10.25;8.75;;;;;28.45;37.33;101557.66;5017497;28;45716;-50
2021/06/15 05:02:05;;;;;;;;;11.75;9.00;;;;;28.45;37.39;101554.88;5017907;28;45831;-44
2021/06/15 05:04:33;;;;;;;;;9.00;9.00;;;;;28.44;37.33;101562.34;5017995;28;45408;-46
2021/06/15 05:07:00;;;;;;;;;6.50;6.50;;;;;28.43;37.00;101565.28;5017540;28;45291;-44
2021/06/15 05:09:28;;;;;;;;;9.00;9.00;;;;;28.43;37.12;101562.53;5017431;28;45428;-48
2021/06/15 05:11:55;;;;;;;;;9.00;9.00;;;;;28.43;36.93;101555.09;5017157;28;45357;-47
2021/06/15 05:14:26;;;;;;;;;11.50;8.50;;;;;28.42;37.52;101563.56;5017372;28;45230;-44
2021/06/15 05:16:54;;;;;;;;;9.75;8.00;;;;;28.42;37.67;101564.44;5017557;28;45386;-46
2021/06/15 05:19:19;;;;;;;;;7.25;7.25;;;;;28.41;37.43;101572.91;5017438;28;45443;-45
2021/06/15 05:22:07;;;;;;;;;8.00;8.00;;;;;28.40;37.43;101577.59;5017503;28;45443;-44
2021/06/15 05:25:11;;;;;;;;;7.25;6.25;;;;;28.40;37.48;101582.28;5017792;28;45372;-44
2021/06/15 05:27:37;;;;;;;;;9.00;8.25;;;;;28.40;37.80;101576.75;4975925;28;45430;-46
2021/06/15 05:30:05;;;;;;;;;8.00;7.50;;;;;28.37;37.61;101566.09;4975334;28;45560;-44
2021/06/15 05:32:31;;;;;;;;;7.00;5.00;;;;;28.40;37.32;101591.41;4959196;28;45701;-45
2021/06/15 05:34:57;;;;;;;;;6.75;6.75;;;;;28.39;37.72;101586.09;4975804;28;45354;-50
2021/06/15 05:37:23;;;;;;;;;9.25;7.50;;;;;28.38;37.72;101576.94;4975844;28;45432;-45
2021/06/15 05:39:49;;;;;;;;;8.00;8.00;;;;;28.39;37.45;101580.56;4975765;28;45390;-43
2021/06/15 05:42:15;;;;;;;;;9.75;8.75;;;;;28.39;37.40;101577.81;4959174;28;45420;-43
2021/06/15 05:44:41;;;;;;;;;7.50;6.00;;;;;28.35;37.45;101577.31;4975357;28;45373;-43
2021/06/15 05:47:07;;;;;;;;;8.25;6.75;;;;;28.38;37.23;101587.13;4975755;28;45524;-44
2021/06/15 05:49:33;;;;;;;;;8.75;8.75;;;;;28.37;37.51;101583.50;4975275;28;45463;-47
2021/06/15 05:52:02;;;;;;;;;7.00;7.00;;;;;28.37;37.76;101589.03;4975373;28;45815;-46
2021/06/15 05:54:29;;;;;;;;;6.00;6.00;;;;;28.38;37.24;101595.41;4975592;28;45361;-44
2021/06/15 05:56:54;;;;;;;;;9.25;7.00;;;;;28.37;37.61;101596.47;4959075;28;45277;-44
2021/06/15 05:59:20;;;;;;;;;6.75;6.75;;;;;28.37;37.54;101593.72;4955220;28;45425;-48
2021/06/15 06:01:45;;;;;;;;;7.75;7.25;;;;;28.36;37.91;101595.59;4998771;28;45340;-49
2021/06/15 06:04:13;;;;;;;;;6.25;6.00;;;;;28.35;38.00;101591.13;5016907;28;45298;-48
2021/06/15 06:09:22;;;;;;;;;6.50;6.25;;;;;28.35;38.20;101593.88;5003345;28;45657;-49
2021/06/15 06:11:48;;;;;;;;;8.75;8.00;;;;;28.32;37.79;101592.38;5016277;28;45345;-45
2021/06/15 06:14:14;;;;;;;;;8.25;8.25;;;;;28.34;37.89;101601.34;5010528;28;45503;-46
2021/06/15 06:16:43;;;;;;;;;9.00;7.00;;;;;28.34;38.03;101594.94;5016677;28;45358;-45
2021/06/15 06:19:10;;;;;;;;;7.00;7.00;;;;;28.34;37.98;101592.19;5016043;28;45329;-45
2021/06/15 06:21:36;;;;;;;;;8.00;7.75;;;;;28.33;37.93;101591.34;5016502;28;45397;-43
2021/06/15 06:24:03;;;;;;;;;7.00;6.50;;;;;28.33;38.26;101593.22;5016646;28;45412;-43
2021/06/15 06:26:29;;;;;;;;;7.75;7.00;;;;;28.34;37.88;101597.69;5016700;28;45347;-43
2021/06/15 06:28:55;;;;;;;;;8.75;8.00;;;;;28.33;38.04;101585.81;5016289;28;45336;-43
2021/06/15 06:31:21;;;;;;;;;7.00;7.00;;;;;28.34;38.30;101589.41;5016332;28;45674;-44
2021/06/15 06:33:47;;;;;;;;;8.00;7.75;;;;;28.33;38.09;101580.28;5016404;28;45349;-46
2021/06/15 06:36:13;;;;;;;;;7.00;7.00;;;;;28.34;38.19;101587.53;5014223;28;45403;-43
2021/06/15 06:38:38;;;;;;;;;9.00;9.00;;;;;28.34;38.08;101598.56;5016035;28;45455;-43
2021/06/15 06:41:04;;;;;;;;;8.75;8.50;;;;;28.34;38.34;101595.81;5016221;28;45298;-44
2021/06/15 06:43:30;;;;;;;;;9.75;8.00;;;;;28.32;37.88;101584.09;5014972;28;45269;-49
2021/06/15 06:45:55;;;;;;;;;8.00;8.00;;;;;28.34;38.36;101593.06;5014022;28;45561;-44
2021/06/15 06:48:21;;;;;;;;;9.00;8.00;;;;;28.34;38.10;101584.75;5015982;28;45961;-51
2021/06/15 06:50:46;;;;;;;;;8.50;8.50;;;;;28.34;38.17;101590.28;5014526;28;45310;-50
2021/06/15 06:53:12;;;;;;;;;7.50;7.50;;;;;28.34;38.14;101589.41;5015972;28;45218;-43
2021/06/15 06:55:38;;;;;;;;;8.25;7.00;;;;;28.35;37.96;101585.59;5014254;28;46182;-48
2021/06/15 06:58:05;;;;;;;;;8.50;7.75;;;;;28.34;38.39;101587.53;5015979;28;45352;-47
2021/06/15 07:00:31;;;;;;;;;11.00;8.00;;;;;28.34;38.46;101592.19;5015935;28;45434;-45
2021/06/15 07:02:57;;;;;;;;;9.75;8.25;;;;;28.35;38.13;101591.13;5015731;28;45379;-43
2021/06/15 07:05:23;;;;;;;;;8.00;8.00;;;;;28.35;38.08;101588.38;5015265;28;45420;-43
2021/06/15 07:07:50;;;;;;;;;8.25;8.25;;;;;28.36;38.24;101590.06;5015831;28;46123;-49
2021/06/15 07:10:15;;;;;;;;;7.75;6.75;;;;;28.37;38.33;101593.72;5001758;28;45421;-45
2021/06/15 07:12:41;;;;;;;;;10.50;10.00;;;;;28.35;38.44;101592.00;4999287;28;45413;-45
2021/06/15 07:15:08;;;;;;;;;9.75;8.50;;;;;28.33;38.23;101591.34;4998346;28;45393;-46
2021/06/15 07:17:33;;;;;;;;;9.75;8.75;;;;;28.35;38.22;101600.28;4999450;28;45474;-48
2021/06/15 07:19:59;;;;;;;;;11.00;9.00;;;;;28.36;38.19;101598.38;4998152;28;45358;-48
2021/06/15 07:22:24;;;;;;;;;9.25;8.50;;;;;28.36;38.38;101592.84;4998301;28;45398;-47
2021/06/15 07:24:50;;;;;;;;;8.25;8.25;;;;;28.35;38.30;101597.53;4999588;28;45333;-47
2021/06/15 07:27:15;;;;;;;;;10.50;9.25;;;;;28.36;38.15;101595.59;4999549;28;45473;-45
2021/06/15 07:29:41;;;;;;;;;11.00;10.00;;;;;28.37;38.01;101597.31;4999288;28;45357;-49
2021/06/15 07:32:07;;;;;;;;;11.75;8.50;;;;;28.36;38.55;101595.59;4999302;28;45302;-50
2021/06/15 07:34:32;;;;;;;;;10.75;9.50;;;;;28.37;38.58;101599.22;4999501;28;45475;-47
2021/06/15 07:36:58;;;;;;;;;11.00;9.00;;;;;28.39;38.02;101597.13;4999146;28;46271;-46
2021/06/15 07:39:23;;;;;;;;;10.75;9.00;;;;;28.39;38.11;101600.72;5007709;28;45333;-46
2021/06/15 07:41:50;;;;;;;;;7.00;7.00;;;;;28.39;38.55;101594.38;5017925;28;45448;-47
2021/06/15 07:44:16;;;;;;;;;12.75;9.25;;;;;28.37;38.34;101588.19;5018842;28;45278;-45
2021/06/15 07:46:42;;;;;;;;;9.75;9.75;;;;;28.39;38.43;101586.94;5018752;28;45258;-43
2021/06/15 07:49:08;;;;;;;;;9.25;9.25;;;;;28.39;38.60;101588.84;5018469;28;45596;-47
2021/06/15 07:51:35;;;;;;;;;11.00;10.00;;;;;28.40;38.34;101576.75;5018263;28;45575;-44
2021/06/15 07:54:01;;;;;;;;;11.50;10.00;;;;;28.40;38.74;101577.59;5017045;28;45258;-48
2021/06/15 07:56:26;;;;;;;;;9.50;8.00;;;;;28.41;38.28;101581.19;5017945;28;46165;-45
2021/06/15 07:58:52;;;;;;;;;8.75;8.75;;;;;28.42;38.71;101581.00;5018733;28;45250;-45
2021/06/15 08:01:18;;;;;;;;;10.75;9.25;;;;;28.43;38.67;101582.72;5018028;28;45287;-46
2021/06/15 08:03:43;;;;;;;;;12.25;10.25;;;;;28.44;38.50;101581.66;5018023;28;45376;-47
2021/06/15 08:06:09;;;;;;;;;10.50;9.25;;;;;28.45;38.57;101579.75;5018371;28;45321;-45
2021/06/15 08:08:35;;;;;;;;;14.25;11.75;;;;;28.46;38.25;101578.69;5016564;28;45281;-43
2021/06/15 08:11:02;;;;;;;;;12.75;10.00;;;;;28.47;38.23;101572.97;5017447;28;45353;-46
2021/06/15 08:13:28;;;;;;;;;10.75;10.00;;;;;28.48;38.28;101579.34;5018575;28;45370;-47
2021/06/15 08:15:54;;;;;;;;;10.00;9.00;;;;;28.50;38.36;101575.34;5018181;28;46047;-44
2021/06/15 08:18:20;;;;;;;;;13.75;11.25;;;;;28.52;38.39;101575.16;5016587;28;45535;-45
2021/06/15 08:20:48;;;;;;;;;12.00;10.25;;;;;28.46;38.52;101568.53;5012044;28;46010;-43
2021/06/15 08:23:15;;;;;;;;;14.00;11.75;;;;;28.43;38.31;101565.28;5008338;28;45463;-44
2021/06/15 08:25:44;;;;;;;;;15.75;12.75;;;;;28.41;39.10;101567.38;5012922;28;46073;-43
2021/06/15 08:28:12;;;;;;;;;12.75;12.00;;;;;28.39;38.63;101569.53;5016496;28;45626;-44
2021/06/15 08:30:40;;;;;;;;;19.75;14.25;;;;;28.38;38.75;101567.81;5018071;28;45376;-43
2021/06/15 08:33:07;;;;;;;;;14.25;12.75;;;;;28.37;38.60;101571.63;5017412;28;45421;-47
2021/06/15 08:35:36;;;;;;;;;12.25;10.50;;;;;28.37;38.51;101568.84;5016823;28;45603;-42
2021/06/15 08:38:03;;;;;;;;;15.00;14.25;;;;;28.39;38.97;101564.00;5016515;28;45416;-45
2021/06/15 08:40:29;;;;;;;;;13.00;10.25;;;;;28.39;38.89;101562.06;5017883;28;45275;-43
2021/06/15 08:42:55;;;;;;;;;16.00;14.50;;;;;28.42;38.63;101563.56;5016282;28;45278;-43
2021/06/15 08:45:20;;;;;;;;;12.00;12.00;;;;;28.43;39.06;101559.75;5017344;28;45397;-42
2021/06/15 08:47:49;;;;;;;;;11.25;10.75;;;;;28.45;38.94;101557.66;5017494;28;45483;-43
2021/06/15 08:50:24;;;;;;;;;15.75;13.00;;;;;28.46;38.49;101567.66;5017865;28;45409;-42
2021/06/15 08:52:51;;;;;;;;;12.25;9.50;;;;;28.50;38.95;101564.28;5016024;28;45429;-41
2021/06/15 08:55:19;;;;;;;;;13.25;12.75;;;;;28.52;38.59;101569.63;5016169;28;45501;-46
2021/06/15 08:58:18;;;;;;;;;15.25;12.75;;;;;28.55;38.39;101569.22;5016388;28;45564;-44
2021/06/15 09:00:44;;;;;;;;;13.75;12.75;;;;;28.55;38.73;101574.72;4995624;28;45463;-41
2021/06/15 09:03:14;;;;;;;;;11.00;11.00;;;;;28.56;38.69;101562.63;4995186;28;45436;-42
2021/06/15 09:05:44;;;;;;;;;11.25;11.00;;;;;28.57;38.62;101569.88;4995177;28;46041;-42
2021/06/15 09:08:12;;;;;;;;;14.00;11.00;;;;;28.62;38.70;101574.78;4995487;28;45836;-43
2021/06/15 09:10:41;;;;;;;;;14.75;11.25;;;;;28.65;38.91;101566.97;4978489;28;45434;-42
2021/06/15 09:13:40;;;;;;;;;12.50;12.50;;;;;28.71;38.54;101569.97;4975468;28;45308;-43
2021/06/15 09:16:33;;;;;;;;;10.00;10.00;;;;;28.75;38.32;101563.03;4995348;28;46009;-43
2021/06/15 09:19:01;;;;;;;;;14.00;12.50;;;;;28.78;38.29;101565.41;4995343;28;45735;-42
2021/06/15 09:21:29;;;;;;;;;11.00;9.75;;;;;28.80;38.33;101558.59;4995425;28;45506;-43
2021/06/15 09:24:10;;;;;;;;;11.75;11.75;;;;;28.84;38.12;101558.22;4994857;28;45622;-42
2021/06/15 09:26:56;;;;;;;;;12.50;11.50;;;;;28.83;37.80;101560.09;4995279;28;45446;-42
2021/06/15 09:29:48;;;;;;;;;14.00;13.00;;;;;28.79;37.70;101558.81;4994861;28;45453;-42
2021/06/15 09:32:28;;;;;;;;;12.00;11.25;;;;;28.78;37.77;101566.22;4994841;28;45484;-42
2021/06/15 09:35:06;;;;;;;;;13.00;13.00;;;;;28.73;37.73;101559.59;4994368;28;45504;-42
2021/06/15 09:37:39;;;;;;;;;9.50;8.75;;;;;28.73;37.76;101556.84;5004049;28;45348;-41
2021/06/15 09:40:20;;;;;;;;;12.00;12.00;;;;;28.77;37.47;101560.91;5016311;28;45654;-42
2021/06/15 09:42:57;;;;;;;;;10.00;9.00;;;;;28.81;37.76;101562.25;5016309;28;45469;-42
2021/06/15 09:45:27;;;;;;;;;14.25;11.75;;;;;28.85;37.60;101557.16;5015206;28;45508;-42
2021/06/15 09:48:14;;;;;;;;;8.25;8.25;;;;;28.87;37.48;101560.56;5016655;28;45373;-42
2021/06/15 09:50:42;;;;;;;;;11.50;9.00;;;;;28.90;37.56;101554.66;5016655;28;45596;-42
2021/06/15 09:53:44;;;;;;;;;11.00;11.00;;;;;28.90;37.46;101555.50;5015477;28;45420;-42
2021/06/15 09:56:12;;;;;;;;;14.00;12.00;;;;;28.92;37.67;101564.44;4975065;28;45366;-43
2021/06/15 09:58:43;;;;;;;;;9.75;9.50;;;;;28.94;37.16;101559.56;4977373;28;45517;-44
2021/06/15 10:01:10;;;;;;;;;11.25;9.50;;;;;28.96;37.33;101554.69;4974501;28;45591;-42
2021/06/15 10:03:36;;;;;;;;;14.00;14.00;;;;;28.93;37.32;101565.28;4988721;28;45421;-43
2021/06/15 10:06:03;;;;;;;;;10.50;8.75;;;;;28.93;37.37;101559.75;4983416;28;45390;-42
2021/06/15 10:08:44;;;;;;;;;10.75;9.25;;;;;28.89;36.95;101564.84;4973870;28;45410;-42
2021/06/15 10:11:10;;;;;;;;;12.25;12.25;;;;;28.91;37.23;101568.25;4986097;28;45805;-43
2021/06/15 10:13:40;;;;;;;;;10.75;9.75;;;;;28.93;37.11;101559.75;4992766;28;45501;-43
2021/06/15 10:16:06;;;;;;;;;10.25;10.25;;;;;29.00;37.06;101560.66;4998172;28;45332;-43
2021/06/15 10:18:33;;;;;;;;;10.75;10.25;;;;;29.06;37.23;101565.34;4973866;28;45852;-46
2021/06/15 10:21:00;;;;;;;;;10.00;10.00;;;;;29.12;37.04;101563.69;4974524;28;45413;-43
2021/06/15 10:23:26;;;;;;;;;11.50;10.00;;;;;29.18;37.14;101562.03;4987277;28;45370;-43
2021/06/15 10:25:51;;;;;;;;;9.00;9.00;;;;;29.22;36.76;101555.91;4975282;28;45697;-46
2021/06/15 10:28:21;;;;;;;;;12.25;10.25;;;;;29.25;37.01;101558.25;4986353;28;45561;-42
2021/06/15 10:30:48;;;;;;;;;10.25;10.25;;;;;29.30;36.97;101557.63;4984580;28;45815;-42
2021/06/15 10:33:22;;;;;;;;;8.50;8.50;;;;;29.33;36.68;101548.06;5014234;28;45392;-42
2021/06/15 10:35:52;;;;;;;;;10.00;10.00;;;;;29.37;36.48;101552.16;5015401;28;45226;-42
2021/06/15 10:38:30;;;;;;;;;11.00;8.75;;;;;29.40;36.73;101549.00;5015494;28;45916;-43
2021/06/15 10:40:59;;;;;;;;;11.00;10.25;;;;;29.42;36.52;101542.19;5015222;28;45486;-43
2021/06/15 10:43:26;;;;;;;;;11.00;10.00;;;;;29.47;36.37;101551.78;5014508;28;45324;-45
2021/06/15 10:46:05;;;;;;;;;9.25;9.25;;;;;29.50;36.30;101548.59;5015776;28;45313;-44
2021/06/15 10:48:39;;;;;;;;;10.25;9.00;;;;;29.53;36.14;101559.25;5014313;28;45455;-42
2021/06/15 10:51:27;;;;;;;;;9.75;8.50;;;;;29.55;36.19;101546.06;5015701;28;45405;-45
2021/06/15 10:54:02;;;;;;;;;9.00;8.00;;;;;29.60;36.14;101549.06;5015805;28;45494;-45
2021/06/15 10:56:33;;;;;;;;;9.25;9.25;;;;;29.63;36.22;101545.88;5015984;28;45365;-42
2021/06/15 10:59:07;;;;;;;;;10.25;8.25;;;;;29.67;35.99;101549.09;5007668;28;45967;-43
2021/06/15 11:01:37;;;;;;;;;9.25;9.00;;;;;29.70;36.01;101540.34;5015845;28;45478;-45
2021/06/15 11:04:05;;;;;;;;;8.25;7.00;;;;;29.74;35.76;101538.03;5015561;28;45373;-43
2021/06/15 11:06:34;;;;;;;;;9.25;8.00;;;;;29.78;36.16;101539.31;5002732;28;45279;-42
2021/06/15 11:09:03;;;;;;;;;7.00;7.00;;;;;29.81;35.88;101530.59;5006950;28;45931;-43
2021/06/15 11:11:30;;;;;;;;;9.75;9.00;;;;;29.85;35.66;101531.91;4995427;28;45535;-43
2021/06/15 11:14:03;;;;;;;;;9.50;8.00;;;;;29.88;35.85;101526.78;4995668;28;45580;-43
2021/06/15 11:16:42;;;;;;;;;8.50;8.50;;;;;29.93;35.32;101522.53;5010826;28;45400;-44
2021/06/15 11:19:14;;;;;;;;;7.25;6.50;;;;;29.95;35.95;101528.75;4995091;28;45624;-42
2021/06/15 11:22:03;;;;;;;;;9.75;8.25;;;;;29.98;35.42;101525.53;4995705;28;45540;-43
2021/06/15 11:24:34;;;;;;;;;9.25;8.50;;;;;30.00;35.10;101518.75;5011161;28;45367;-42
2021/06/15 11:27:11;;;;;;;;;8.25;8.25;;;;;30.03;35.08;101520.25;5015268;28;45382;-42
2021/06/15 11:29:40;;;;;;;;;8.00;8.00;;;;;30.06;34.90;101513.41;5014916;28;45517;-45
2021/06/15 11:32:24;;;;;;;;;10.00;9.00;;;;;30.09;35.02;101507.47;5013990;28;45461;-45
2021/06/15 11:34:52;;;;;;;;;8.00;7.00;;;;;30.14;34.50;101511.28;5015364;28;45483;-43
2021/06/15 11:37:33;;;;;;;;;9.00;7.00;;;;;30.18;34.51;101512.59;5015484;28;45396;-42